createdAt,value
2023-05-11T00:01:12.197Z,-0.02
2023-05-11T00:06:16.128Z,0.53
2023-05-11T00:11:20.232Z,0.69
2023-05-11T00:16:24.318Z,0.85
2023-05-11T00:21:28.437Z,1.06
2023-05-11T00:26:32.302Z,1.17
2023-05-11T00:31:36.574Z,1.56
2023-05-11T00:36:41.407Z,1.85
2023-05-11T00:41:45.737Z,2.12
2023-05-11T00:46:50.227Z,2.31
2023-05-11T00:51:54.416Z,2.52
2023-05-11T00:56:58.580Z,2.60
2023-05-11T01:02:03.790Z,2.91
2023-05-11T01:07:13.847Z,3.03
2023-05-11T01:12:23.698Z,3.22
2023-05-11T01:17:44.572Z,3.50
2023-05-11T01:23:19.055Z,3.77
2023-05-11T01:28:58.935Z,4.07
2023-05-11T01:34:07.112Z,4.29
2023-05-11T01:39:14.586Z,4.49
2023-05-11T01:44:22.416Z,4.93
2023-05-11T01:49:27.858Z,5.51
2023-05-11T01:54:33.282Z,5.84
2023-05-11T01:59:40.299Z,6.41
2023-05-11T02:04:46.710Z,6.91
2023-05-11T02:09:52.107Z,7.15
2023-05-11T02:14:58.360Z,7.65
2023-05-11T02:20:05.676Z,8.16
2023-05-11T02:25:11.236Z,8.72
2023-05-11T02:30:16.577Z,9.27
2023-05-11T02:35:30.817Z,9.78
2023-05-11T02:40:40.663Z,10.33
2023-05-11T02:45:48.004Z,10.78
2023-05-11T02:50:55.069Z,11.09
2023-05-11T02:56:01.872Z,11.35
2023-05-11T03:01:09.184Z,11.56
2023-05-11T03:06:13.648Z,11.78
2023-05-11T03:11:19.717Z,12.05
2023-05-11T03:16:27.831Z,12.32
2023-05-11T03:21:32.871Z,12.62
2023-05-11T03:26:38.381Z,13.01
2023-05-11T03:31:42.718Z,13.35
2023-05-11T03:36:50.875Z,13.58
2023-05-11T03:41:57.040Z,13.60
2023-05-11T03:47:04.485Z,13.71
2023-05-11T03:52:09.858Z,13.48
2023-05-11T03:57:16.433Z,13.69
2023-05-11T04:02:20.690Z,14.06
2023-05-11T04:07:24.771Z,14.13
2023-05-11T04:12:29.067Z,14.09
2023-05-11T04:17:32.956Z,14.02
2023-05-11T04:22:37.130Z,13.67
2023-05-11T04:27:41.556Z,13.80
2023-05-11T04:32:45.648Z,14.03
2023-05-11T04:37:49.675Z,13.88
2023-05-11T04:42:53.694Z,14.10
2023-05-11T04:47:57.986Z,14.78
2023-05-11T04:53:02.961Z,14.71
2023-05-11T04:58:07.234Z,14.78
2023-05-11T05:03:11.262Z,14.96
2023-05-11T05:08:15.886Z,15.07
2023-05-11T05:13:19.775Z,15.12
2023-05-11T05:18:23.897Z,15.24
2023-05-11T05:23:28.198Z,15.72
2023-05-11T05:28:32.172Z,15.66
2023-05-11T05:33:37.176Z,15.60
2023-05-11T05:38:41.085Z,15.82
2023-05-11T05:43:45.204Z,15.68
2023-05-11T05:48:50.013Z,15.24
2023-05-11T05:53:54.026Z,14.75
2023-05-11T05:58:58.168Z,14.38
2023-05-11T06:04:02.311Z,14.46
2023-05-11T06:09:08.870Z,14.83
2023-05-11T06:14:12.999Z,15.05
2023-05-11T06:19:18.299Z,15.11
2023-05-11T06:24:22.770Z,15.26
2023-05-11T06:29:26.944Z,15.30
2023-05-11T06:34:31.229Z,15.25
2023-05-11T06:39:38.861Z,15.08
2023-05-11T06:44:45.412Z,14.89
2023-05-11T06:49:49.689Z,14.63
2023-05-11T06:54:53.692Z,14.32
2023-05-11T06:59:57.754Z,14.21
2023-05-11T07:05:01.673Z,14.13
2023-05-11T07:10:08.126Z,14.00
2023-05-11T07:15:13.368Z,13.75
2023-05-11T07:20:18.243Z,13.63
2023-05-11T07:25:22.657Z,13.54
2023-05-11T07:30:26.772Z,13.44
2023-05-11T07:35:30.728Z,13.33
2023-05-11T07:40:36.408Z,13.10
2023-05-11T07:45:40.952Z,12.85
2023-05-11T07:50:45.543Z,12.67
2023-05-11T07:55:49.687Z,12.72
2023-05-11T08:00:53.817Z,12.47
2023-05-11T08:05:58.136Z,12.09
2023-05-11T08:11:02.513Z,11.42
2023-05-11T08:16:07.461Z,11.38
2023-05-11T08:21:12.427Z,11.15
2023-05-11T08:26:16.863Z,10.92
2023-05-11T08:31:20.730Z,10.81
2023-05-11T08:36:24.942Z,10.54
2023-05-11T08:41:28.994Z,10.50
2023-05-11T08:46:36.858Z,10.09
2023-05-11T08:51:41.640Z,10.31
2023-05-11T08:56:48.606Z,10.06
2023-05-11T09:01:54.020Z,9.78
2023-05-11T09:06:58.959Z,9.65
2023-05-11T09:12:03.292Z,9.48
2023-05-11T09:17:07.521Z,9.40
2023-05-11T09:22:11.694Z,9.28
2023-05-11T09:27:21.283Z,8.82
2023-05-11T09:32:25.866Z,9.23
2023-05-11T09:37:30.128Z,9.22
2023-05-11T09:42:34.251Z,9.18
2023-05-11T09:47:41.815Z,9.15
2023-05-11T09:52:53.062Z,9.11
2023-05-11T09:57:59.015Z,9.09
2023-05-11T10:03:08.515Z,9.11
2023-05-11T10:08:12.604Z,9.11
2023-05-11T10:13:17.606Z,9.10
2023-05-11T10:18:22.645Z,9.03
2023-05-11T10:23:34.638Z,9.14
2023-05-11T10:28:39.645Z,9.12
2023-05-11T10:33:44.374Z,8.99
2023-05-11T10:38:48.342Z,9.06
2023-05-11T10:44:36.639Z,8.89
2023-05-11T10:50:21.436Z,8.94
2023-05-11T10:56:06.883Z,8.59
2023-05-11T11:01:40.415Z,8.75
2023-05-11T11:06:45.135Z,8.73
2023-05-11T11:11:51.894Z,8.74
2023-05-11T11:17:43.769Z,8.76
2023-05-11T11:22:48.004Z,8.69
2023-05-11T11:27:53.386Z,8.63
2023-05-11T11:33:09.531Z,8.52
2023-05-11T11:38:22.439Z,8.52
2023-05-11T11:43:29.547Z,8.50
2023-05-11T11:48:38.468Z,8.44
2023-05-11T11:53:43.087Z,8.43
2023-05-11T11:58:47.305Z,8.45
2023-05-11T12:04:06.379Z,8.11
2023-05-11T12:09:10.530Z,8.21
2023-05-11T12:14:14.801Z,8.36
2023-05-11T12:19:25.511Z,8.39
2023-05-11T12:24:29.659Z,8.40
2023-05-11T12:29:34.109Z,8.31
2023-05-11T12:34:38.533Z,8.32
2023-05-11T12:39:42.583Z,8.18
2023-05-11T12:44:46.695Z,8.04
2023-05-11T12:49:51.611Z,8.39
2023-05-11T12:55:00.644Z,8.88
2023-05-11T13:00:16.211Z,8.84
2023-05-11T13:05:29.039Z,8.68
2023-05-11T13:10:33.291Z,8.52
2023-05-11T13:15:52.609Z,8.38
2023-05-11T13:21:10.302Z,8.17
2023-05-11T13:26:26.498Z,7.88
2023-05-11T13:31:30.693Z,7.70
2023-05-11T13:36:34.896Z,7.74
2023-05-11T13:41:39.303Z,7.64
2023-05-11T13:46:43.272Z,7.55
2023-05-11T13:51:47.245Z,7.05
2023-05-11T13:56:51.422Z,7.22
2023-05-11T14:01:55.547Z,6.89
2023-05-11T14:07:00.116Z,6.73
2023-05-11T14:12:04.228Z,6.60
2023-05-11T14:17:08.352Z,6.52
2023-05-11T14:22:12.283Z,6.34
2023-05-11T14:27:16.604Z,6.18
2023-05-11T14:32:20.924Z,5.91
2023-05-11T14:37:25.020Z,5.85
2023-05-11T14:42:30.366Z,5.65
2023-05-11T14:47:34.440Z,5.45
2023-05-11T14:52:38.464Z,5.10
2023-05-11T14:57:43.095Z,4.92
2023-05-11T15:02:48.109Z,4.69
2023-05-11T15:07:51.975Z,4.66
2023-05-11T15:12:56.436Z,4.42
2023-05-11T15:18:00.549Z,4.38
2023-05-11T15:23:06.731Z,4.31
2023-05-11T15:28:12.430Z,4.23
2023-05-11T15:33:17.428Z,4.03
2023-05-11T15:38:22.225Z,3.84
2023-05-11T15:43:26.370Z,3.60
2023-05-11T15:48:30.684Z,3.60
2023-05-11T15:53:34.660Z,3.42
2023-05-11T15:58:38.753Z,3.28
2023-05-11T16:03:42.728Z,3.21
2023-05-11T16:08:46.770Z,2.71
2023-05-11T16:13:50.971Z,3.02
2023-05-11T16:18:55.371Z,2.99
2023-05-11T16:24:00.697Z,2.86
2023-05-11T16:29:04.704Z,2.77
2023-05-11T16:34:09.136Z,2.67
2023-05-11T16:39:13.202Z,2.47
2023-05-11T16:44:17.295Z,2.31
2023-05-11T16:49:21.179Z,2.22
2023-05-11T16:54:27.123Z,2.15
2023-05-11T16:59:33.900Z,2.05
2023-05-11T17:04:37.972Z,2.01
2023-05-11T17:09:42.016Z,1.91
2023-05-11T17:14:46.073Z,1.84
2023-05-11T17:19:51.429Z,1.75
2023-05-11T17:24:55.260Z,1.72
2023-05-11T17:29:59.542Z,1.65
2023-05-11T17:35:04.803Z,1.51
2023-05-11T17:40:10.271Z,1.45
2023-05-11T17:45:14.621Z,1.39
2023-05-11T17:50:18.663Z,1.35
2023-05-11T17:55:22.813Z,1.27
2023-05-11T18:00:28.576Z,0.86
2023-05-11T18:05:44.700Z,1.20
2023-05-11T18:10:52.862Z,0.97
2023-05-11T18:16:00.546Z,1.03
2023-05-11T18:21:11.630Z,0.89
2023-05-11T18:26:17.074Z,0.87
2023-05-11T18:31:21.177Z,0.76
2023-05-11T18:36:25.040Z,0.38
2023-05-11T18:41:29.672Z,0.78
2023-05-11T18:46:33.600Z,0.46
2023-05-11T18:51:37.847Z,0.61
2023-05-11T18:56:41.853Z,0.16
2023-05-11T19:01:48.538Z,0.61
2023-05-11T19:06:53.388Z,0.52
2023-05-11T19:11:57.642Z,0.45
2023-05-11T19:17:02.905Z,0.07
2023-05-11T19:22:09.219Z,0.25
2023-05-11T19:27:14.007Z,0.26
2023-05-11T19:32:19.896Z,0.27
2023-05-11T19:37:23.761Z,0.09
2023-05-11T19:42:38.338Z,0.10
2023-05-11T19:47:43.513Z,0.03
2023-05-11T19:52:48.209Z,-0.33
2023-05-11T19:57:52.481Z,0.02
2023-05-11T20:02:58.187Z,-0.06
2023-05-11T20:08:02.246Z,-0.14
2023-05-11T20:13:07.103Z,-0.16
2023-05-11T20:18:11.454Z,-0.12
2023-05-11T20:23:15.557Z,-0.14
2023-05-11T20:28:22.905Z,-0.14
2023-05-11T20:38:33.831Z,-0.14
2023-05-11T20:43:37.868Z,-0.14
2023-05-11T20:48:43.641Z,-0.11
2023-05-11T20:53:50.493Z,-0.15
2023-05-11T20:58:56.052Z,-0.18
2023-05-11T21:04:00.051Z,-0.14
2023-05-11T21:09:05.080Z,-0.53
2023-05-11T21:14:09.154Z,-0.19
2023-05-11T21:19:13.706Z,-0.21
2023-05-11T21:24:18.904Z,-0.21
2023-05-11T21:29:22.691Z,-0.30
2023-05-11T21:34:26.682Z,-0.18
2023-05-11T21:39:30.720Z,-0.16
2023-05-11T21:44:34.542Z,-0.16
2023-05-11T21:49:38.632Z,-0.13
2023-05-11T21:54:42.495Z,-0.10
2023-05-11T21:59:46.533Z,-0.12
2023-05-11T22:04:51.368Z,-0.10
2023-05-11T22:09:55.155Z,-0.11
2023-05-11T22:14:59.461Z,-0.12
2023-05-11T22:20:07.082Z,-0.14
2023-05-11T22:25:11.701Z,-0.16
2023-05-11T22:30:15.810Z,-0.22
2023-05-11T22:35:20.168Z,-0.23
2023-05-11T22:40:24.091Z,-0.25
2023-05-11T22:45:28.051Z,-0.28
2023-05-11T22:50:31.840Z,-0.10
2023-05-11T22:55:35.974Z,-0.11
2023-05-11T23:00:41.532Z,-0.05
2023-05-11T23:05:45.377Z,-0.05
2023-05-11T23:10:51.501Z,-0.03
2023-05-11T23:15:55.366Z,-0.04
2023-05-11T23:21:00.330Z,0.04
2023-05-11T23:26:04.530Z,0.15
2023-05-11T23:31:08.530Z,-0.09
2023-05-11T23:36:12.398Z,0.42
2023-05-11T23:41:16.566Z,0.37
2023-05-11T23:46:20.586Z,0.59
2023-05-11T23:51:25.515Z,0.69
2023-05-11T23:56:29.641Z,0.89
